Time;durP1;ratioP1;P1;durP2;ratioP2;P2;SDS_P1;SDS_P2;PMS_P1;PMS_P2;Temp;Humidity;BMP_temperature;BMP_pressure;BME280_temperature;BME280_humidity;BME280_pressure;Samples;Min_cycle;Max_cycle;Signal;HPM_P1;HPM_P2
2023/04/13 00:01:10;;;;;;;3.45;2.65;;;22.30;33.90;;;;;;5032376;28;20123;-60
2023/04/13 00:03:38;;;;;;;2.88;2.30;;;22.40;34.00;;;;;;5032078;28;20058;-60
2023/04/13 00:06:09;;;;;;;2.55;2.33;;;22.40;34.00;;;;;;5032557;28;20124;-60
2023/04/13 00:08:37;;;;;;;3.80;3.05;;;22.40;34.00;;;;;;5034962;28;20057;-60
2023/04/13 00:11:06;;;;;;;2.85;2.47;;;22.40;34.00;;;;;;5036163;28;20425;-60
2023/04/13 00:13:39;;;;;;;4.15;2.22;;;22.30;34.00;;;;;;5035033;28;20053;-60
2023/04/13 00:16:09;;;;;;;3.25;2.30;;;22.30;34.00;;;;;;5035193;28;20052;-60
2023/04/13 00:18:36;;;;;;;3.72;2.35;;;22.30;34.00;;;;;;5036034;28;20564;-61
2023/04/13 00:21:03;;;;;;;1.95;1.73;;;22.40;34.00;;;;;;5036132;28;20045;-60
2023/04/13 00:23:30;;;;;;;3.40;2.38;;;22.40;34.00;;;;;;5035789;28;20107;-62
2023/04/13 00:26:00;;;;;;;2.35;2.15;;;22.30;34.00;;;;;;5035991;28;20046;-60
2023/04/13 00:28:28;;;;;;;2.67;2.00;;;22.30;34.00;;;;;;5035955;28;20080;-60
2023/04/13 00:30:56;;;;;;;2.58;2.03;;;22.30;34.00;;;;;;5036074;28;20115;-60
2023/04/13 00:33:23;;;;;;;2.80;2.60;;;22.30;34.00;;;;;;5035593;28;20133;-60
2023/04/13 00:35:51;;;;;;;2.80;1.85;;;22.30;34.00;;;;;;5034432;28;20060;-60
2023/04/13 00:38:18;;;;;;;2.90;2.05;;;22.30;34.00;;;;;;5035851;28;20391;-60
2023/04/13 00:40:45;;;;;;;2.78;2.17;;;22.30;34.00;;;;;;5035869;28;20046;-60
2023/04/13 00:43:13;;;;;;;2.72;2.30;;;22.30;34.00;;;;;;5035584;28;20064;-60
2023/04/13 00:45:40;;;;;;;2.65;2.28;;;22.30;34.00;;;;;;5035446;28;20141;-60
2023/04/13 00:48:09;;;;;;;2.60;2.17;;;22.30;34.00;;;;;;5035681;28;20049;-60
2023/04/13 00:50:37;;;;;;;2.28;1.92;;;22.30;34.00;;;;;;5035505;28;20104;-60
2023/04/13 00:53:06;;;;;;;2.33;1.98;;;22.30;34.00;;;;;;5035260;28;20053;-60
2023/04/13 00:55:40;;;;;;;3.83;2.30;;;22.30;34.00;;;;;;5035662;28;20077;-61
2023/04/13 00:58:08;;;;;;;2.47;2.13;;;22.30;34.00;;;;;;5035087;28;20072;-60
2023/04/13 01:00:37;;;;;;;2.38;1.90;;;22.30;34.00;;;;;;5035234;28;20041;-60
2023/04/13 01:03:06;;;;;;;2.15;1.88;;;22.30;34.00;;;;;;5019485;28;20108;-60
2023/04/13 01:05:56;;;;;;;2.55;1.88;;;22.30;34.00;;;;;;5016850;28;20046;-60
2023/04/13 01:08:35;;;;;;;1.90;1.70;;;22.30;34.00;;;;;;5034631;28;20099;-60
2023/04/13 01:11:21;;;;;;;2.63;2.20;;;22.30;33.90;;;;;;5034894;28;20325;-60
2023/04/13 01:14:12;;;;;;;1.52;1.40;;;22.30;33.90;;;;;;5034950;28;20060;-60
2023/04/13 01:16:45;;;;;;;2.13;1.67;;;22.40;34.00;;;;;;5034041;28;20379;-60
2023/04/13 01:19:27;;;;;;;2.45;1.98;;;22.40;34.00;;;;;;5035092;28;20077;-60
2023/04/13 01:21:55;;;;;;;2.60;1.80;;;22.30;33.90;;;;;;5035035;28;20133;-60
2023/04/13 01:24:39;;;;;;;2.35;1.85;;;22.30;33.90;;;;;;5033097;28;20053;-60
2023/04/13 01:27:15;;;;;;;2.10;1.75;;;22.30;33.90;;;;;;5015205;28;20053;-60
2023/04/13 01:29:45;;;;;;;1.85;1.70;;;22.30;34.00;;;;;;5015279;28;20057;-61
2023/04/13 01:32:16;;;;;;;;;;;22.30;34.00;;;;;;5015443;28;20128;-60
2023/04/13 01:34:44;;;;;;;1.63;1.50;;;22.30;34.00;;;;;;5014692;28;19921;-60
2023/04/13 01:37:12;;;;;;;1.73;1.63;;;22.30;34.00;;;;;;5015023;28;20057;-60
2023/04/13 01:39:39;;;;;;;2.17;1.52;;;22.30;34.00;;;;;;5014767;28;20399;-60
2023/04/13 01:42:07;;;;;;;1.70;1.60;;;22.30;34.00;;;;;;5014568;28;20046;-60
2023/04/13 01:44:34;;;;;;;1.33;1.23;;;22.30;34.00;;;;;;5014550;28;20061;-60
2023/04/13 01:47:14;;;;;;;1.77;1.52;;;22.30;34.10;;;;;;5014514;28;20085;-60
2023/04/13 01:49:51;;;;;;;1.95;1.83;;;22.30;34.10;;;;;;5014703;28;20426;-60
2023/04/13 01:52:19;;;;;;;1.70;1.60;;;22.30;34.00;;;;;;5014796;28;20050;-60
2023/04/13 01:54:49;;;;;;;2.53;1.73;;;22.30;34.10;;;;;;5014652;28;20085;-60
2023/04/13 01:57:17;;;;;;;1.50;1.40;;;22.30;34.10;;;;;;5014703;28;20057;-60
2023/04/13 01:59:44;;;;;;;2.10;1.80;;;22.20;34.00;;;;;;5014415;28;20477;-60
2023/04/13 02:02:15;;;;;;;1.27;1.10;;;22.30;34.00;;;;;;5014144;28;20129;-60
2023/04/13 02:04:42;;;;;;;1.75;1.65;;;22.30;34.00;;;;;;5012921;28;20088;-60
2023/04/13 02:07:11;;;;;;;2.05;1.38;;;22.30;34.00;;;;;;5014556;28;20055;-60
2023/04/13 02:09:38;;;;;;;1.33;1.23;;;22.20;34.00;;;;;;5014209;28;20089;-60
2023/04/13 02:12:05;;;;;;;1.55;1.45;;;22.30;34.00;;;;;;5014230;28;20056;-60
2023/04/13 02:14:32;;;;;;;1.92;1.60;;;22.20;34.00;;;;;;5014197;28;20053;-60
2023/04/13 02:16:59;;;;;;;1.20;1.10;;;22.20;34.00;;;;;;5013976;28;20498;-60
2023/04/13 02:19:27;;;;;;;1.60;1.38;;;22.20;34.00;;;;;;5014018;28;20053;-60
2023/04/13 02:21:54;;;;;;;4.05;1.20;;;22.20;34.00;;;;;;5014205;28;20049;-60
2023/04/13 02:24:21;;;;;;;1.25;1.15;;;22.20;34.00;;;;;;5013316;28;20091;-60
2023/04/13 02:26:48;;;;;;;1.30;1.20;;;22.20;33.90;;;;;;5013890;28;20088;-60
2023/04/13 02:29:16;;;;;;;1.42;1.25;;;22.20;34.00;;;;;;5014155;28;20053;-60
2023/04/13 02:31:44;;;;;;;1.23;1.13;;;22.20;33.90;;;;;;5012444;28;20049;-60
2023/04/13 02:34:11;;;;;;;1.25;1.20;;;22.20;34.00;;;;;;5013305;28;20058;-60
2023/04/13 02:36:39;;;;;;;2.03;1.52;;;22.20;34.00;;;;;;5028659;28;20410;-60
2023/04/13 02:39:07;;;;;;;1.08;1.00;;;22.20;34.00;;;;;;5029490;28;20052;-60
2023/04/13 02:41:34;;;;;;;1.38;1.27;;;22.20;34.00;;;;;;5013559;28;20049;-60
2023/04/13 02:44:02;;;;;;;1.50;1.30;;;22.20;34.00;;;;;;5013570;28;20057;-60
2023/04/13 02:46:29;;;;;;;1.88;1.40;;;22.20;34.00;;;;;;5012396;28;20053;-60
2023/04/13 02:48:59;;;;;;;1.40;1.20;;;22.20;34.00;;;;;;5013455;28;20088;-60
2023/04/13 02:51:26;;;;;;;1.30;1.20;;;22.20;34.00;;;;;;5013333;28;20050;-60
2023/04/13 02:53:54;;;;;;;1.38;1.27;;;22.20;34.00;;;;;;5011912;28;20111;-60
2023/04/13 02:56:27;;;;;;;1.30;1.15;;;22.20;34.00;;;;;;5013343;28;20050;-60
2023/04/13 02:58:54;;;;;;;1.25;1.15;;;22.20;34.00;;;;;;5013690;28;20092;-60
2023/04/13 03:01:23;;;;;;;1.00;0.90;;;22.20;33.90;;;;;;5013191;28;20048;-60
2023/04/13 03:03:51;;;;;;;1.20;0.97;;;22.20;33.90;;;;;;5012816;28;20483;-60
2023/04/13 03:06:18;;;;;;;1.23;1.13;;;22.20;33.90;;;;;;5013414;28;20398;-60
2023/04/13 03:08:46;;;;;;;1.27;1.00;;;22.20;33.90;;;;;;5013310;28;20562;-60
2023/04/13 03:11:15;;;;;;;1.98;1.30;;;22.30;33.90;;;;;;5012373;28;20053;-60
2023/04/13 03:13:42;;;;;;;1.10;1.00;;;22.30;33.90;;;;;;5013154;28;20049;-60
2023/04/13 03:16:12;;;;;;;1.90;0.80;;;22.30;33.90;;;;;;5013552;28;20433;-60
2023/04/13 03:18:39;;;;;;;1.55;1.40;;;22.20;33.80;;;;;;5013477;28;20104;-60
2023/04/13 03:21:06;;;;;;;1.13;1.02;;;22.30;33.90;;;;;;5013263;28;20046;-60
2023/04/13 03:23:34;;;;;;;1.10;0.98;;;22.30;33.90;;;;;;5013403;28;20058;-60
2023/04/13 03:26:01;;;;;;;0.70;0.70;;;22.30;33.90;;;;;;5013232;28;20053;-61
2023/04/13 03:28:28;;;;;;;1.20;1.10;;;22.30;33.90;;;;;;5013350;28;20051;-60
2023/04/13 03:30:56;;;;;;;1.15;1.00;;;22.30;33.90;;;;;;5013107;28;20048;-60
2023/04/13 03:33:23;;;;;;;0.93;0.88;;;22.30;33.90;;;;;;5012910;28;20149;-60
2023/04/13 03:35:50;;;;;;;1.13;1.00;;;22.20;33.80;;;;;;5013428;28;20399;-60
2023/04/13 03:38:17;;;;;;;0.88;0.77;;;22.30;33.90;;;;;;5013063;28;20052;-60
2023/04/13 03:40:45;;;;;;;0.80;0.80;;;22.30;33.90;;;;;;5013181;28;20061;-60
2023/04/13 03:43:12;;;;;;;1.40;1.30;;;22.20;33.90;;;;;;5014306;28;20140;-60
2023/04/13 03:45:39;;;;;;;2.35;1.10;;;22.20;34.40;;;;;;5017518;28;20129;-60
2023/04/13 03:48:06;;;;;;;1.88;1.00;;;22.20;33.90;;;;;;5030408;28;20072;-61
2023/04/13 03:50:33;;;;;;;1.25;0.85;;;22.20;33.80;;;;;;5036316;28;20133;-60
2023/04/13 03:53:01;;;;;;;0.77;0.77;;;22.20;33.90;;;;;;5036485;28;20474;-60
2023/04/13 03:55:28;;;;;;;0.70;0.70;;;22.20;34.50;;;;;;5033696;28;20060;-60
2023/04/13 03:57:55;;;;;;;0.88;0.88;;;22.20;33.80;;;;;;5027253;28;20046;-60
2023/04/13 04:00:22;;;;;;;1.60;0.93;;;22.20;33.90;;;;;;5022056;28;20041;-60
2023/04/13 04:02:49;;;;;;;1.27;0.88;;;22.20;33.90;;;;;;5033418;28;20061;-60
2023/04/13 04:05:17;;;;;;;0.70;0.70;;;22.20;33.80;;;;;;5028460;28;20550;-60
2023/04/13 04:07:44;;;;;;;0.73;0.73;;;22.20;33.90;;;;;;5027235;28;20433;-60
2023/04/13 04:10:12;;;;;;;1.05;1.00;;;22.20;34.40;;;;;;5034167;28;20140;-60
2023/04/13 04:12:39;;;;;;;1.00;0.88;;;22.20;33.90;;;;;;5028095;28;20049;-60
2023/04/13 04:15:07;;;;;;;1.00;0.90;;;22.20;33.80;;;;;;5023075;28;20049;-60
2023/04/13 04:17:34;;;;;;;0.77;0.77;;;22.20;33.80;;;;;;5020345;28;20042;-60
2023/04/13 04:20:05;;;;;;;0.63;0.63;;;22.20;33.80;;;;;;5023787;28;20504;-60
2023/04/13 04:22:35;;;;;;;0.75;0.75;;;22.20;33.80;;;;;;5032944;28;20573;-60
2023/04/13 04:25:03;;;;;;;0.60;0.60;;;22.20;33.80;;;;;;5032393;28;20052;-60
2023/04/13 04:27:36;;;;;;;0.68;0.68;;;22.20;33.80;;;;;;5033466;28;20046;-60
2023/04/13 04:30:05;;;;;;;1.20;0.82;;;22.20;33.80;;;;;;5032216;28;20093;-60
2023/04/13 04:32:32;;;;;;;0.82;0.82;;;22.20;33.80;;;;;;5035670;28;20514;-60
2023/04/13 04:35:01;;;;;;;0.55;0.52;;;22.20;33.80;;;;;;5034250;28;20092;-60
2023/04/13 04:37:36;;;;;;;0.60;0.60;;;22.20;33.70;;;;;;5028151;28;20057;-60
2023/04/13 04:40:11;;;;;;;1.75;0.98;;;22.20;33.40;;;;;;5022546;28;20128;-60
2023/04/13 04:42:38;;;;;;;1.20;1.10;;;22.20;33.20;;;;;;5021705;28;20068;-60
2023/04/13 04:45:06;;;;;;;0.73;0.70;;;22.20;33.00;;;;;;5025722;28;20466;-60
2023/04/13 04:47:40;;;;;;;0.95;0.63;;;22.20;32.80;;;;;;5022183;28;20480;-60
2023/04/13 04:50:10;;;;;;;1.58;0.77;;;22.10;32.60;;;;;;5029150;28;20052;-60
2023/04/13 04:52:38;;;;;;;1.40;1.30;;;22.20;32.60;;;;;;5030899;28;20080;-60
2023/04/13 04:55:06;;;;;;;0.70;0.70;;;22.20;32.60;;;;;;5034996;28;20128;-60
2023/04/13 04:57:33;;;;;;;0.60;0.60;;;22.20;32.60;;;;;;5028065;28;20046;-60
2023/04/13 05:00:01;;;;;;;0.82;0.82;;;22.20;32.60;;;;;;5015125;28;20046;-60
2023/04/13 05:02:28;;;;;;;0.77;0.77;;;22.20;32.50;;;;;;5019915;28;20490;-60
2023/04/13 05:04:56;;;;;;;1.13;0.90;;;22.30;32.50;;;;;;5015969;28;20050;-60
2023/04/13 05:07:23;;;;;;;1.05;0.95;;;22.30;32.40;;;;;;5034385;28;20383;-60
2023/04/13 05:09:51;;;;;;;1.30;0.90;;;22.30;32.30;;;;;;5025665;28;20136;-60
2023/04/13 05:12:18;;;;;;;1.02;0.93;;;22.30;32.20;;;;;;5023960;28;20052;-60
2023/04/13 05:14:47;;;;;;;1.02;0.77;;;22.30;32.20;;;;;;5030663;28;20103;-59
2023/04/13 05:17:17;;;;;;;1.08;0.98;;;22.40;32.20;;;;;;5020891;28;20128;-59
2023/04/13 05:19:44;;;;;;;;;;;22.40;32.10;;;;;;5035026;28;20053;-59
2023/04/13 05:22:14;;;;;;;0.88;0.60;;;22.40;32.10;;;;;;5033460;28;19925;-58
2023/04/13 05:24:41;;;;;;;0.80;0.80;;;22.50;32.10;;;;;;5026489;28;20417;-58
2023/04/13 05:27:08;;;;;;;0.65;0.60;;;22.50;32.00;;;;;;5025364;28;20072;-59
2023/04/13 05:29:36;;;;;;;1.08;1.00;;;22.50;31.80;;;;;;5023901;28;20049;-59
2023/04/13 05:32:04;;;;;;;1.08;1.00;;;22.60;31.80;;;;;;5030621;28;20041;-58
2023/04/13 05:34:32;;;;;;;1.80;0.98;;;22.60;31.70;;;;;;5030598;28;20115;-63
2023/04/13 05:36:59;;;;;;;0.93;0.65;;;22.60;31.70;;;;;;5028286;28;20048;-63
2023/04/13 05:39:27;;;;;;;2.40;1.13;;;22.70;31.60;;;;;;5023017;28;20064;-64
2023/04/13 05:41:54;;;;;;;1.05;0.68;;;22.70;31.50;;;;;;5021056;28;20050;-63
2023/04/13 05:44:22;;;;;;;0.77;0.77;;;22.70;31.50;;;;;;5022194;28;20053;-63
2023/04/13 05:46:50;;;;;;;3.63;1.20;;;22.80;31.40;;;;;;5019195;28;20063;-64
2023/04/13 05:49:17;;;;;;;0.90;0.90;;;22.80;31.40;;;;;;5022490;28;20562;-63
2023/04/13 05:51:44;;;;;;;3.50;0.80;;;22.90;31.70;;;;;;5023474;28;20136;-62
2023/04/13 05:54:12;;;;;;;1.27;0.88;;;22.90;31.80;;;;;;5020383;28;20475;-62
2023/04/13 05:56:40;;;;;;;0.77;0.77;;;23.00;31.90;;;;;;5018486;28;20053;-62
2023/04/13 05:59:08;;;;;;;5.15;1.40;;;23.00;31.90;;;;;;5023066;28;20489;-63
2023/04/13 06:01:36;;;;;;;2.33;0.95;;;23.00;31.80;;;;;;5021498;28;20655;-62
2023/04/13 06:04:04;;;;;;;20.45;1.08;;;23.10;31.80;;;;;;5021256;28;20053;-63
2023/04/13 06:06:32;;;;;;;3.30;1.00;;;23.10;31.70;;;;;;5021201;28;20080;-62
2023/04/13 06:09:00;;;;;;;1.50;1.00;;;23.20;31.70;;;;;;5019180;28;20434;-63
2023/04/13 06:11:28;;;;;;;4.57;0.98;;;23.30;31.60;;;;;;5022411;28;20444;-65
2023/04/13 06:13:55;;;;;;;3.72;1.63;;;23.30;31.60;;;;;;5019565;28;20395;-64
2023/04/13 06:16:25;;;;;;;1.38;1.27;;;23.30;31.50;;;;;;5023220;28;20049;-63
2023/04/13 06:18:52;;;;;;;1.85;1.50;;;23.40;31.40;;;;;;5021817;28;20045;-63
2023/04/13 06:21:20;;;;;;;1.95;1.55;;;23.40;31.30;;;;;;5024003;28;20107;-64
2023/04/13 06:23:49;;;;;;;2.13;1.30;;;23.50;31.10;;;;;;5022864;28;20137;-63
2023/04/13 06:26:17;;;;;;;1.80;1.38;;;23.60;30.90;;;;;;5023409;28;20566;-63
2023/04/13 06:28:44;;;;;;;4.80;1.40;;;23.60;30.80;;;;;;5021679;28;20100;-63
2023/04/13 06:31:11;;;;;;;2.55;1.25;;;23.60;30.60;;;;;;5021887;28;20136;-64
2023/04/13 06:33:40;;;;;;;2.38;1.30;;;23.70;30.60;;;;;;5021613;28;20438;-64
2023/04/13 06:36:08;;;;;;;2.20;1.33;;;23.70;30.40;;;;;;5022801;28;20057;-63
2023/04/13 06:38:35;;;;;;;3.53;1.73;;;23.70;30.30;;;;;;5023264;28;20068;-63
2023/04/13 06:41:03;;;;;;;6.43;1.27;;;23.80;30.30;;;;;;5018712;28;20411;-63
2023/04/13 06:43:30;;;;;;;4.35;1.38;;;23.80;30.30;;;;;;5023254;28;20501;-63
2023/04/13 06:46:00;;;;;;;3.38;1.17;;;23.90;30.40;;;;;;5021692;28;20053;-62
2023/04/13 06:48:29;;;;;;;3.17;1.42;;;23.90;30.40;;;;;;5022455;28;20056;-63
2023/04/13 06:50:58;;;;;;;3.63;1.98;;;23.90;30.20;;;;;;5021048;28;20493;-61
2023/04/13 06:53:25;;;;;;;2.63;1.35;;;23.90;30.10;;;;;;5022016;28;20041;-60
2023/04/13 06:55:52;;;;;;;4.03;1.65;;;24.00;30.00;;;;;;5019765;28;20054;-62
2023/04/13 06:58:22;;;;;;;4.07;1.90;;;24.10;30.00;;;;;;5022078;28;20065;-61
2023/04/13 07:00:49;;;;;;;2.05;1.88;;;24.10;29.90;;;;;;5017230;28;20090;-66
2023/04/13 07:03:16;;;;;;;2.85;2.15;;;24.10;29.70;;;;;;5023157;28;20050;-63
2023/04/13 07:05:44;;;;;;;3.47;1.70;;;24.10;29.70;;;;;;5022112;28;20053;-64
2023/04/13 07:08:11;;;;;;;2.60;2.00;;;24.20;29.70;;;;;;5022371;28;20165;-64
2023/04/13 07:10:39;;;;;;;4.47;1.85;;;24.20;29.60;;;;;;5020337;28;20049;-63
2023/04/13 07:13:07;;;;;;;2.67;1.65;;;24.20;29.50;;;;;;5021894;28;20133;-66
2023/04/13 07:15:36;;;;;;;1.90;1.55;;;24.20;29.70;;;;;;5017136;28;20049;-64
2023/04/13 07:18:03;;;;;;;2.67;1.50;;;24.30;29.60;;;;;;5023863;28;20493;-65
2023/04/13 07:20:33;;;;;;;3.05;1.63;;;24.30;29.60;;;;;;5026240;28;20049;-63
2023/04/13 07:23:01;;;;;;;2.45;2.00;;;24.30;29.50;;;;;;5030856;28;20088;-62
2023/04/13 07:25:28;;;;;;;1.98;1.50;;;24.30;29.50;;;;;;5023999;28;20497;-62
2023/04/13 07:27:56;;;;;;;5.15;2.03;;;24.30;29.50;;;;;;5025613;28;20053;-65
2023/04/13 07:30:23;;;;;;;5.18;1.90;;;24.40;29.50;;;;;;5026934;28;20050;-62
2023/04/13 07:32:50;;;;;;;4.82;2.40;;;24.30;29.50;;;;;;5029980;28;20061;-63
2023/04/13 07:35:17;;;;;;;5.70;2.45;;;24.40;29.50;;;;;;5025534;28;20156;-62
2023/04/13 07:37:45;;;;;;;2.40;1.58;;;24.40;29.50;;;;;;5033458;28;20041;-62
2023/04/13 07:40:12;;;;;;;3.78;1.63;;;24.40;29.50;;;;;;5029384;28;20136;-63
2023/04/13 07:42:40;;;;;;;2.88;2.00;;;24.40;29.50;;;;;;5028125;28;20087;-64
2023/04/13 07:45:09;;;;;;;3.78;2.30;;;24.50;29.70;;;;;;5028977;28;20064;-62
2023/04/13 07:47:36;;;;;;;5.53;1.80;;;24.50;29.70;;;;;;5027076;28;20052;-63
2023/04/13 07:50:05;;;;;;;2.75;1.85;;;24.50;29.70;;;;;;5029207;28;20558;-62
2023/04/13 07:52:32;;;;;;;4.07;1.95;;;24.50;29.70;;;;;;5027189;28;20053;-61
2023/04/13 07:55:01;;;;;;;3.35;1.83;;;24.50;29.60;;;;;;5030169;28;20065;-62
2023/04/13 07:57:28;;;;;;;3.35;2.20;;;24.50;29.60;;;;;;5029072;28;20045;-62
2023/04/13 07:59:56;;;;;;;2.92;1.95;;;24.50;29.60;;;;;;5030932;28;20053;-62
2023/04/13 08:02:24;;;;;;;4.10;1.75;;;24.50;29.70;;;;;;5026965;28;20885;-64
2023/04/13 08:04:51;;;;;;;4.50;1.95;;;24.50;29.60;;;;;;5026198;28;20494;-63
2023/04/13 08:07:21;;;;;;;4.57;1.65;;;24.50;29.50;;;;;;5028578;28;20419;-63
2023/04/13 08:09:51;;;;;;;3.42;2.05;;;24.50;29.60;;;;;;5025609;28;20741;-63
2023/04/13 08:12:18;;;;;;;2.42;1.92;;;24.50;29.50;;;;;;5023596;28;20056;-63
2023/04/13 08:14:45;;;;;;;2.63;1.70;;;24.50;29.50;;;;;;5022653;28;20049;-62
2023/04/13 08:17:12;;;;;;;4.10;2.08;;;24.50;29.50;;;;;;5020602;28;20049;-62
2023/04/13 08:19:40;;;;;;;5.13;1.92;;;24.60;29.50;;;;;;5024829;28;20568;-63
2023/04/13 08:22:09;;;;;;;3.72;2.38;;;24.50;29.50;;;;;;5025349;28;20903;-65
2023/04/13 08:24:36;;;;;;;2.88;2.22;;;24.60;29.00;;;;;;5021337;28;20104;-63
2023/04/13 08:27:06;;;;;;;4.03;1.77;;;24.50;28.90;;;;;;5022562;28;20063;-62
2023/04/13 08:29:34;;;;;;;4.28;1.80;;;24.50;29.20;;;;;;5019526;28;20037;-63
2023/04/13 08:32:01;;;;;;;3.78;2.10;;;24.50;29.40;;;;;;5024402;28;20062;-63
2023/04/13 08:34:29;;;;;;;4.60;2.22;;;24.50;29.50;;;;;;5030349;28;20045;-63
2023/04/13 08:36:56;;;;;;;2.83;1.65;;;24.50;29.50;;;;;;5026598;28;20474;-63
2023/04/13 08:39:23;;;;;;;5.97;2.30;;;24.50;29.60;;;;;;5022985;28;20045;-63
2023/04/13 08:41:51;;;;;;;3.70;2.00;;;24.60;29.60;;;;;;5028553;28;20053;-63
2023/04/13 08:44:18;;;;;;;2.03;1.65;;;24.60;29.60;;;;;;5028574;28;20130;-62
2023/04/13 08:46:46;;;;;;;4.72;1.77;;;24.70;29.70;;;;;;5029970;28;20045;-68
2023/04/13 08:49:13;;;;;;;2.55;1.77;;;24.70;29.70;;;;;;5028922;28;20054;-67
2023/04/13 08:51:45;;;;;;;4.75;1.85;;;24.70;29.80;;;;;;5027865;28;20057;-65
2023/04/13 08:54:14;;;;;;;4.53;1.77;;;24.70;29.80;;;;;;5028463;28;20060;-65
2023/04/13 08:56:45;;;;;;;3.80;2.67;;;24.80;29.80;;;;;;5020498;28;20489;-64
2023/04/13 08:59:14;;;;;;;7.30;2.95;;;24.80;29.70;;;;;;5024485;28;20168;-65
2023/04/13 09:01:47;;;;;;;2.75;1.83;;;24.70;29.60;;;;;;5024418;28;20420;-64
2023/04/13 09:04:18;;;;;;;2.83;2.30;;;24.80;29.70;;;;;;5021952;28;20085;-64
2023/04/13 09:06:49;;;;;;;5.38;2.40;;;24.80;29.80;;;;;;5027385;28;20052;-63
2023/04/13 09:09:19;;;;;;;2.95;1.90;;;24.80;29.70;;;;;;5025236;28;20072;-64
2023/04/13 09:11:47;;;;;;;3.78;2.17;;;24.70;29.70;;;;;;5028171;28;20449;-62
2023/04/13 09:14:21;;;;;;;4.05;1.90;;;24.70;29.80;;;;;;5041129;28;20099;-62
2023/04/13 09:16:49;;;;;;;9.35;4.60;;;24.80;29.90;;;;;;5025578;28;20128;-64
2023/04/13 09:19:27;;;;;;;7.68;3.47;;;24.70;30.00;;;;;;5024440;28;20161;-64
2023/04/13 09:21:55;;;;;;;4.70;2.95;;;24.80;30.10;;;;;;5025327;28;20050;-63
2023/04/13 09:24:22;;;;;;;3.35;2.55;;;24.70;30.10;;;;;;5025470;28;20544;-63
2023/04/13 09:26:49;;;;;;;3.22;2.40;;;24.70;30.10;;;;;;5026389;28;20041;-63
2023/04/13 09:29:18;;;;;;;3.92;2.67;;;24.70;30.30;;;;;;5026220;28;20077;-63
2023/04/13 09:31:46;;;;;;;7.15;2.60;;;24.70;30.40;;;;;;5024228;28;20046;-63
2023/04/13 09:34:28;;;;;;;5.60;2.63;;;24.80;30.60;;;;;;5023171;28;20052;-64
2023/04/13 09:36:55;;;;;;;5.38;2.50;;;24.80;30.70;;;;;;5021593;28;20486;-64
2023/04/13 09:39:27;;;;;;;6.22;2.60;;;24.80;30.80;;;;;;5023946;28;20133;-64
2023/04/13 09:41:56;;;;;;;5.70;2.83;;;24.70;30.80;;;;;;5022039;28;20443;-63
2023/04/13 09:44:27;;;;;;;5.00;2.58;;;24.80;31.50;;;;;;5021514;28;20045;-63
2023/04/13 09:47:02;;;;;;;4.47;3.10;;;24.80;31.00;;;;;;5021724;28;20053;-62
2023/04/13 09:49:41;;;;;;;6.38;3.00;;;24.80;31.10;;;;;;5024209;28;20088;-62
2023/04/13 09:52:21;;;;;;;3.28;2.15;;;24.80;31.20;;;;;;5023797;28;20081;-63
2023/04/13 09:54:57;;;;;;;3.13;1.92;;;24.80;31.30;;;;;;5024998;28;20065;-63
2023/04/13 09:57:27;;;;;;;3.60;2.55;;;24.80;31.30;;;;;;5023360;28;20146;-63
2023/04/13 09:59:56;;;;;;;2.38;2.08;;;24.90;31.40;;;;;;5019973;28;20045;-64
2023/04/13 10:02:24;;;;;;;3.97;2.50;;;24.80;31.30;;;;;;5022744;28;20072;-65
2023/04/13 10:04:53;;;;;;;3.53;2.53;;;24.90;31.50;;;;;;5013603;28;20049;-65
2023/04/13 10:07:25;;;;;;;5.03;2.92;;;24.90;31.70;;;;;;5023440;28;20396;-65
2023/04/13 10:09:53;;;;;;;3.88;2.63;;;24.90;31.90;;;;;;5022266;28;20076;-64
2023/04/13 10:12:23;;;;;;;4.63;2.67;;;24.90;31.90;;;;;;5019975;28;20053;-63
2023/04/13 10:14:58;;;;;;;4.00;2.45;;;24.80;31.80;;;;;;5021070;28;20051;-62
2023/04/13 10:17:42;;;;;;;3.22;2.80;;;24.80;31.90;;;;;;5021180;28;20046;-63
2023/04/13 10:20:11;;;;;;;3.88;2.60;;;24.80;32.00;;;;;;5019890;28;20575;-63
2023/04/13 10:22:42;;;;;;;5.50;2.50;;;24.80;32.10;;;;;;5023801;28;20049;-63
2023/04/13 10:25:14;;;;;;;3.72;2.45;;;24.80;32.10;;;;;;5022553;28;20061;-64
2023/04/13 10:27:59;;;;;;;3.10;2.25;;;24.70;32.10;;;;;;5023013;28;20140;-64
2023/04/13 10:30:27;;;;;;;4.28;2.75;;;24.70;32.20;;;;;;5022501;28;20096;-63
2023/04/13 10:33:05;;;;;;;5.00;2.63;;;24.70;32.30;;;;;;5020224;28;20132;-64
2023/04/13 10:35:39;;;;;;;3.72;2.67;;;24.70;32.30;;;;;;5022757;28;20053;-63
2023/04/13 10:38:10;;;;;;;2.20;1.80;;;24.70;32.40;;;;;;5020811;28;20119;-65
2023/04/13 10:40:45;;;;;;;3.22;2.28;;;24.70;32.40;;;;;;5027779;28;20053;-62
2023/04/13 10:43:23;;;;;;;3.15;1.90;;;24.70;32.50;;;;;;5022245;28;20128;-63
2023/04/13 10:45:50;;;;;;;6.10;3.00;;;24.60;32.50;;;;;;5019828;28;20049;-64
2023/04/13 10:48:21;;;;;;;3.70;2.50;;;24.60;32.60;;;;;;5022892;28;20045;-64
2023/04/13 10:50:57;;;;;;;3.85;2.50;;;24.60;32.70;;;;;;5002969;28;20041;-65
2023/04/13 10:53:29;;;;;;;2.47;2.10;;;24.60;32.90;;;;;;5019300;28;20053;-64
2023/04/13 10:55:56;;;;;;;4.00;2.38;;;24.60;33.00;;;;;;5024514;28;20050;-63
2023/04/13 10:58:25;;;;;;;4.05;2.00;;;24.50;33.20;;;;;;5023940;28;20137;-64
2023/04/13 11:00:53;;;;;;;3.65;2.15;;;24.50;33.40;;;;;;5024019;28;20049;-64
2023/04/13 11:03:27;;;;;;;3.03;2.17;;;24.50;33.40;;;;;;5024379;28;20521;-64
2023/04/13 11:05:57;;;;;;;2.88;2.00;;;24.50;33.40;;;;;;5023799;28;20302;-63
2023/04/13 11:08:26;;;;;;;3.80;2.10;;;24.50;33.50;;;;;;5019718;28;20056;-63
2023/04/13 11:10:55;;;;;;;2.20;1.98;;;24.50;33.50;;;;;;5025681;28;20521;-63
2023/04/13 11:13:28;;;;;;;3.60;2.33;;;24.50;33.60;;;;;;5021604;28;20041;-62
2023/04/13 11:16:03;;;;;;;3.22;2.22;;;24.50;33.60;;;;;;5023420;28;20042;-61
2023/04/13 11:18:31;;;;;;;3.40;2.22;;;24.50;33.60;;;;;;5020405;28;20046;-62
2023/04/13 11:20:58;;;;;;;4.38;2.03;;;24.50;33.60;;;;;;5022015;28;20498;-62
2023/04/13 11:23:26;;;;;;;4.22;2.60;;;24.50;33.60;;;;;;5019946;28;20100;-61
2023/04/13 11:25:58;;;;;;;1.90;1.67;;;24.50;33.70;;;;;;5020573;28;20053;-62
2023/04/13 11:28:42;;;;;;;1.98;1.73;;;24.50;33.70;;;;;;5021258;28;20041;-62
2023/04/13 11:31:10;;;;;;;3.42;1.98;;;24.50;33.80;;;;;;5021324;28;20053;-63
2023/04/13 11:33:38;;;;;;;5.43;2.55;;;24.60;33.90;;;;;;5019965;28;20057;-61
2023/04/13 11:36:08;;;;;;;2.70;2.03;;;24.60;34.00;;;;;;5019701;28;20042;-61
2023/04/13 11:38:40;;;;;;;2.28;1.95;;;24.60;34.00;;;;;;5019412;28;20053;-61
2023/04/13 11:41:08;;;;;;;3.60;1.92;;;24.60;34.00;;;;;;5020678;28;20168;-62
2023/04/13 11:43:47;;;;;;;2.88;2.20;;;24.60;34.00;;;;;;5020501;28;20099;-60
2023/04/13 11:46:23;;;;;;;3.08;1.90;;;24.60;34.10;;;;;;5019368;28;20083;-59
2023/04/13 11:48:52;;;;;;;3.20;2.10;;;24.60;34.20;;;;;;5021543;28;20093;-59
2023/04/13 11:51:20;;;;;;;2.88;2.60;;;24.50;34.10;;;;;;5016414;28;20080;-58
2023/04/13 11:53:50;;;;;;;2.53;2.30;;;24.50;34.10;;;;;;5020329;28;20106;-58
2023/04/13 11:56:18;;;;;;;3.55;1.90;;;24.50;34.20;;;;;;5019832;28;20046;-58
2023/04/13 11:58:48;;;;;;;2.47;2.08;;;24.50;34.20;;;;;;5018346;28;20144;-59
2023/04/13 12:01:17;;;;;;;3.70;2.30;;;24.50;34.20;;;;;;5020676;28;20144;-59
2023/04/13 12:04:01;;;;;;;3.50;1.80;;;24.50;34.40;;;;;;5020014;28;20069;-60
2023/04/13 12:06:44;;;;;;;1.70;1.60;;;24.60;34.60;;;;;;5024623;28;20053;-59
2023/04/13 12:09:12;;;;;;;2.08;1.67;;;24.60;34.70;;;;;;5022966;28;20416;-60
2023/04/13 12:11:44;;;;;;;4.35;2.25;;;24.60;34.80;;;;;;5023827;28;20085;-61
2023/04/13 12:14:21;;;;;;;3.42;2.47;;;24.60;34.80;;;;;;5023050;28;20057;-60
2023/04/13 12:16:51;;;;;;;2.40;2.20;;;24.70;34.80;;;;;;5026374;28;20053;-61
2023/04/13 12:19:25;;;;;;;2.30;2.10;;;24.70;34.90;;;;;;5026649;28;20060;-60
2023/04/13 12:21:54;;;;;;;2.65;2.03;;;24.70;35.00;;;;;;5024490;28;20056;-59
2023/04/13 12:24:34;;;;;;;3.00;2.33;;;24.70;35.00;;;;;;5029300;28;20111;-58
2023/04/13 12:27:04;;;;;;;;;;;24.70;35.10;;;;;;5027048;28;20355;-61
2023/04/13 12:29:38;;;;;;;;;;;24.70;35.10;;;;;;5028671;28;19928;-59
2023/04/13 12:32:12;;;;;;;3.58;2.53;;;24.60;35.10;;;;;;5029133;28;19929;-59
2023/04/13 12:34:42;;;;;;;2.20;2.00;;;24.60;35.00;;;;;;5030234;28;20041;-59
2023/04/13 12:37:10;;;;;;;4.30;1.90;;;24.60;35.00;;;;;;5027926;28;20140;-59
2023/04/13 12:39:38;;;;;;;2.45;1.80;;;24.70;35.00;;;;;;5023074;28;20479;-59
2023/04/13 12:42:05;;;;;;;3.85;1.83;;;24.70;35.00;;;;;;5029575;28;20053;-59
2023/04/13 12:44:32;;;;;;;3.45;2.13;;;24.70;35.00;;;;;;5026487;28;20141;-58
2023/04/13 12:47:01;;;;;;;2.22;1.80;;;24.70;35.00;;;;;;5023937;28;20167;-59
2023/04/13 12:49:28;;;;;;;2.30;1.95;;;24.70;35.00;;;;;;5020283;28;20045;-59
2023/04/13 12:51:56;;;;;;;4.53;2.67;;;24.70;35.50;;;;;;5026004;28;20053;-58
2023/04/13 12:54:23;;;;;;;3.30;2.20;;;24.70;35.00;;;;;;5020246;28;20494;-59
2023/04/13 12:56:51;;;;;;;2.63;1.60;;;24.70;35.00;;;;;;5023515;28;20172;-59
2023/04/13 12:59:20;;;;;;;3.72;1.88;;;24.70;35.10;;;;;;5040174;28;20454;-59